Time;durP1;ratioP1;P1;durP2;ratioP2;P2;SDS_P1;SDS_P2;PMS_P1;PMS_P2;Temp;Humidity;BMP_temperature;BMP_pressure;BME280_temperature;BME280_humidity;BME280_pressure;Samples;Min_cycle;Max_cycle;Signal;HPM_P1;HPM_P2
2021/12/21 00:01:33;;;;;;;246.25;111.93;;;-0.70;1.00;;;;;;5037075;28;20099;-78
2021/12/21 00:04:01;;;;;;;256.08;116.28;;;-0.70;1.00;;;;;;5054722;28;20041;-76
2021/12/21 00:06:28;;;;;;;230.50;106.88;;;-0.90;1.00;;;;;;5053805;28;20064;-76
2021/12/21 00:08:56;;;;;;;213.60;105.25;;;-0.90;1.00;;;;;;5064909;28;20059;-79
2021/12/21 00:11:23;;;;;;;211.02;98.93;;;-0.80;1.00;;;;;;5066858;28;20040;-77
2021/12/21 00:17:00;;;;;;;250.40;115.47;;;-0.70;1.00;;;;;;5040638;28;20048;-77
2021/12/21 00:19:46;;;;;;;259.40;121.75;;;-0.70;1.00;;;;;;5068080;28;20495;-77
2021/12/21 00:22:32;;;;;;;238.60;117.05;;;-0.70;1.00;;;;;;5072800;28;20071;-77
2021/12/21 00:25:00;;;;;;;249.43;113.28;;;-0.90;1.00;;;;;;5083665;28;20044;-76
2021/12/21 00:27:27;;;;;;;242.95;109.82;;;-1.00;1.00;;;;;;5078506;28;20049;-77
2021/12/21 00:29:55;;;;;;;251.55;115.28;;;-1.00;1.00;;;;;;5059003;28;20131;-76
2021/12/21 00:32:24;;;;;;;263.55;122.45;;;-1.00;1.00;;;;;;5078171;28;20044;-75
2021/12/21 00:34:51;;;;;;;275.90;125.45;;;-1.00;1.00;;;;;;5077087;28;20044;-76
2021/12/21 00:37:21;;;;;;;262.23;123.20;;;-0.90;1.00;;;;;;5077987;28;20051;-75
2021/12/21 00:39:49;;;;;;;257.23;121.75;;;-0.90;1.00;;;;;;5057639;28;20488;-76
2021/12/21 00:42:16;;;;;;;297.98;136.48;;;-0.90;1.00;;;;;;5074634;28;20036;-76
2021/12/21 00:44:44;;;;;;;272.60;126.70;;;-0.90;1.00;;;;;;5058967;28;20052;-76
2021/12/21 00:47:14;;;;;;;241.82;116.68;;;-1.00;1.00;;;;;;5076946;28;20040;-76
2021/12/21 00:49:47;;;;;;;237.18;112.55;;;-1.00;1.00;;;;;;5076610;28;20090;-76
2021/12/21 00:52:15;;;;;;;230.73;108.55;;;-1.00;1.00;;;;;;5076749;28;20037;-77
2021/12/21 00:54:43;;;;;;;224.43;108.00;;;-1.10;1.00;;;;;;5080405;28;20116;-77
2021/12/21 00:57:11;;;;;;;220.35;106.05;;;-1.10;1.00;;;;;;5088854;28;20117;-75
2021/12/21 00:59:38;;;;;;;232.02;111.72;;;-1.20;1.00;;;;;;5057665;28;20091;-75
2021/12/21 01:02:06;;;;;;;223.30;107.95;;;-1.30;1.00;;;;;;5056782;28;20040;-76
2021/12/21 01:04:38;;;;;;;226.80;109.13;;;-1.40;1.00;;;;;;5057113;28;20076;-77
2021/12/21 01:07:17;;;;;;;257.83;126.22;;;-1.40;1.00;;;;;;5042119;28;20052;-77
2021/12/21 01:10:25;;;;;;;245.27;117.30;;;-1.40;1.00;;;;;;5075596;28;20053;-75
2021/12/21 01:12:57;;;;;;;166.67;82.73;;;-1.40;1.00;;;;;;5055084;28;20085;-75
2021/12/21 01:15:42;;;;;;;169.57;82.50;;;-1.40;1.00;;;;;;5074197;28;20036;-78
2021/12/21 01:18:15;;;;;;;166.70;81.75;;;-1.50;1.00;;;;;;5076508;28;20044;-76
2021/12/21 01:20:48;;;;;;;181.82;85.90;;;-1.50;1.00;;;;;;5076196;28;20044;-75
2021/12/21 01:23:46;;;;;;;185.60;86.53;;;-1.50;1.00;;;;;;5076124;28;20049;-76
2021/12/21 01:26:23;;;;;;;185.18;86.25;;;-1.60;1.00;;;;;;5049571;28;20049;-77
2021/12/21 01:28:58;;;;;;;172.52;83.05;;;-1.70;1.00;;;;;;5031138;28;20384;-77
2021/12/21 01:31:32;;;;;;;160.43;76.30;;;-1.70;1.00;;;;;;5037414;28;20132;-75
2021/12/21 01:34:15;;;;;;;165.38;76.78;;;-1.70;1.00;;;;;;5056407;28;20068;-76
2021/12/21 01:36:49;;;;;;;159.15;75.47;;;-1.60;1.00;;;;;;5056057;28;20045;-77
2021/12/21 01:39:46;;;;;;;149.27;71.38;;;-1.70;1.00;;;;;;5066507;28;20090;-75
2021/12/21 01:42:16;;;;;;;150.23;73.88;;;-1.70;1.00;;;;;;5057370;28;20044;-77
2021/12/21 01:49:34;;;;;;;135.63;66.85;;;-1.80;1.00;;;;;;5072623;28;20048;-76
2021/12/21 01:50:19;;;;;;;131.60;60.63;;;-1.80;1.00;;;;;;5055946;28;20044;-75
2021/12/21 01:52:47;;;;;;;138.85;63.65;;;-1.90;1.00;;;;;;5075215;28;20033;-75
2021/12/21 01:55:16;;;;;;;128.07;62.53;;;-1.90;1.00;;;;;;5062037;28;20098;-76
2021/12/21 01:57:43;;;;;;;131.15;65.45;;;-1.90;1.00;;;;;;5054320;28;20068;-76
2021/12/21 02:00:12;;;;;;;127.00;62.90;;;-1.90;1.00;;;;;;5053719;28;20412;-77
2021/12/21 02:02:40;;;;;;;123.05;62.97;;;-1.80;1.00;;;;;;5053667;28;20131;-76
2021/12/21 02:05:08;;;;;;;135.60;63.45;;;-1.80;1.00;;;;;;5054527;28;20138;-77
2021/12/21 02:07:36;;;;;;;124.07;59.28;;;-1.80;1.00;;;;;;5045234;28;20420;-76
2021/12/21 02:10:05;;;;;;;120.45;56.00;;;-1.80;1.00;;;;;;5065452;28;20059;-76
2021/12/21 02:12:34;;;;;;;114.45;53.22;;;-1.80;1.00;;;;;;5056663;28;20139;-76
2021/12/21 02:15:02;;;;;;;120.93;58.30;;;-1.80;1.00;;;;;;5069372;28;20045;-74
2021/12/21 02:20:25;;;;;;;150.75;72.55;;;-1.80;1.00;;;;;;5038668;28;20048;-77
2021/12/21 02:22:59;;;;;;;170.35;80.63;;;-1.70;1.00;;;;;;5074903;28;20139;-76
2021/12/21 02:25:59;;;;;;;168.93;86.68;;;-1.70;1.00;;;;;;5059786;28;20041;-77
2021/12/21 02:28:58;;;;;;;172.90;83.75;;;-1.80;1.00;;;;;;5055745;28;20032;-77
2021/12/21 02:31:26;;;;;;;167.80;79.10;;;-1.80;1.00;;;;;;5055138;28;20037;-78
2021/12/21 02:33:54;;;;;;;137.52;63.03;;;-1.90;1.00;;;;;;5054101;28;20044;-76
2021/12/21 02:36:24;;;;;;;114.68;55.40;;;-1.90;1.00;;;;;;5033688;28;20084;-75
2021/12/21 02:38:51;;;;;;;147.02;67.80;;;-1.90;1.00;;;;;;5052541;28;20442;-77
2021/12/21 02:41:19;;;;;;;141.98;70.22;;;-2.00;1.00;;;;;;5054105;28;20045;-75
2021/12/21 02:43:46;;;;;;;146.05;69.57;;;-2.00;1.00;;;;;;5055469;28;20443;-75
2021/12/21 02:46:14;;;;;;;122.13;60.28;;;-2.00;1.00;;;;;;5053565;28;20419;-76
2021/12/21 02:48:42;;;;;;;118.95;58.15;;;-2.10;1.00;;;;;;5054711;28;20407;-76
2021/12/21 02:51:09;;;;;;;139.25;67.10;;;-2.30;1.00;;;;;;5047787;28;20431;-78
2021/12/21 02:53:38;;;;;;;153.13;73.55;;;-2.40;1.00;;;;;;5036460;28;20045;-78
2021/12/21 02:56:06;;;;;;;151.18;69.70;;;-2.40;34.90;;;;;;5054823;28;20442;-78
2021/12/21 02:58:34;;;;;;;143.70;66.18;;;-2.40;19.00;;;;;;5073519;28;20130;-78
2021/12/21 03:01:02;;;;;;;123.70;58.00;;;-2.30;1.00;;;;;;5066482;28;20107;-78
2021/12/21 03:03:29;;;;;;;128.77;58.55;;;-2.40;1.00;;;;;;5062713;28;20037;-77
2021/12/21 03:05:58;;;;;;;134.15;64.53;;;-2.40;1.00;;;;;;5076546;28;20056;-78
2021/12/21 03:08:36;;;;;;;131.52;63.75;;;-2.40;1.00;;;;;;5086380;28;20052;-79
2021/12/21 03:11:12;;;;;;;141.45;67.10;;;-2.50;1.00;;;;;;5060090;28;20044;-79
2021/12/21 03:13:54;;;;;;;131.13;62.15;;;-2.50;1.00;;;;;;5083948;28;20063;-79
2021/12/21 03:16:23;;;;;;;104.75;51.28;;;-2.50;1.00;;;;;;5084567;28;20044;-80
2021/12/21 03:18:52;;;;;;;95.15;46.97;;;-2.50;70.20;;;;;;5074554;28;20067;-78
2021/12/21 03:21:20;;;;;;;101.05;49.60;;;-2.40;8.80;;;;;;5044959;28;20057;-78
2021/12/21 03:23:48;;;;;;;101.35;47.72;;;-2.50;1.00;;;;;;5073950;28;20041;-76
2021/12/21 03:26:17;;;;;;;107.93;50.05;;;-2.50;1.00;;;;;;5069624;28;20433;-80
2021/12/21 03:28:45;;;;;;;106.47;50.05;;;-2.60;1.00;;;;;;5069596;28;20446;-80
2021/12/21 03:31:13;;;;;;;100.47;49.95;;;-2.60;1.00;;;;;;5078862;28;20049;-78
2021/12/21 03:33:41;;;;;;;93.55;46.03;;;-2.50;1.00;;;;;;5079148;28;20044;-79
2021/12/21 03:36:09;;;;;;;84.32;44.28;;;-2.50;1.00;;;;;;5077409;28;20108;-78
2021/12/21 03:38:38;;;;;;;74.70;37.15;;;-2.50;3.80;;;;;;5073854;28;20396;-80
2021/12/21 03:41:11;;;;;;;54.97;29.95;;;-2.50;1.00;;;;;;5044016;28;20095;-80
2021/12/21 03:43:40;;;;;;;58.55;29.50;;;-2.50;1.00;;;;;;5062244;28;20064;-79
2021/12/21 03:46:10;;;;;;;70.82;34.47;;;-2.50;1.00;;;;;;5061168;28;20059;-79
2021/12/21 03:48:40;;;;;;;73.10;38.85;;;-2.60;1.00;;;;;;5059560;28;20068;-80
2021/12/21 03:51:08;;;;;;;88.85;40.97;;;-2.70;1.00;;;;;;5083786;28;20079;-79
2021/12/21 03:53:37;;;;;;;99.38;47.50;;;-2.70;1.00;;;;;;5070975;28;20114;-79
2021/12/21 03:56:23;;;;;;;92.85;48.60;;;-2.70;24.30;;;;;;5068699;28;20045;-79
2021/12/21 03:58:52;;;;;;;97.82;50.95;;;-2.60;1.00;;;;;;5068580;28;20036;-80
2021/12/21 04:01:22;;;;;;;106.65;51.08;;;-2.70;1.00;;;;;;5054551;28;20049;-80
2021/12/21 04:03:49;;;;;;;92.43;47.60;;;-2.60;1.00;;;;;;5066672;28;20530;-77
2021/12/21 04:06:17;;;;;;;87.28;40.50;;;-2.70;1.00;;;;;;5085544;28;20095;-77
2021/12/21 04:08:44;;;;;;;100.60;48.78;;;-2.70;1.00;;;;;;5087256;28;20044;-78
2021/12/21 04:11:12;;;;;;;126.03;58.28;;;-2.70;1.00;;;;;;5063905;28;20131;-79
2021/12/21 04:13:40;;;;;;;130.57;61.03;;;-2.70;1.00;;;;;;5079141;28;20060;-79
2021/12/21 04:16:08;;;;;;;136.23;63.90;;;-2.80;1.00;;;;;;5058431;28;20472;-80
2021/12/21 04:18:38;;;;;;;120.97;57.63;;;-2.80;1.00;;;;;;5056639;28;20051;-80
2021/12/21 04:21:09;;;;;;;104.10;50.70;;;-2.80;1.00;;;;;;5055183;28;20041;-80
2021/12/21 04:23:36;;;;;;;129.63;61.25;;;-2.80;1.00;;;;;;5061117;28;20128;-80
2021/12/21 04:26:04;;;;;;;136.18;65.35;;;-2.90;1.00;;;;;;5065499;28;20063;-81
2021/12/21 04:28:32;;;;;;;134.73;64.00;;;-2.90;1.00;;;;;;5073535;28;20045;-80
2021/12/21 04:30:59;;;;;;;135.95;67.40;;;-2.90;1.00;;;;;;5069754;28;20143;-80
2021/12/21 04:33:28;;;;;;;137.73;67.93;;;-3.10;1.00;;;;;;5044316;28;20048;-80
2021/12/21 04:35:56;;;;;;;141.00;68.03;;;-3.10;1.00;;;;;;5062801;28;20048;-80
2021/12/21 04:38:27;;;;;;;139.10;68.68;;;-3.00;39.30;;;;;;5063314;28;20064;-80
2021/12/21 04:41:00;;;;;;;138.07;67.32;;;-3.00;29.80;;;;;;5062419;28;20485;-79
2021/12/21 04:43:27;;;;;;;156.98;75.53;;;-3.00;1.00;;;;;;5060584;28;20049;-79
2021/12/21 04:45:55;;;;;;;100.63;49.65;;;-3.00;3.30;;;;;;5059786;28;20097;-80
2021/12/21 04:48:22;;;;;;;69.55;36.00;;;-3.00;1.00;;;;;;5068539;28;20045;-78
2021/12/21 04:50:51;;;;;;;84.78;41.40;;;-3.00;1.00;;;;;;5081170;28;20482;-80
2021/12/21 04:53:19;;;;;;;131.77;61.50;;;-3.10;1.00;;;;;;5081179;28;20047;-80
2021/12/21 04:55:47;;;;;;;145.07;68.65;;;-3.10;1.00;;;;;;5079457;28;20381;-80
2021/12/21 04:58:15;;;;;;;146.68;71.53;;;-3.20;1.00;;;;;;5073757;28;20067;-80
2021/12/21 05:00:43;;;;;;;152.57;71.95;;;-3.20;12.40;;;;;;5045453;28;20389;-80
2021/12/21 05:03:11;;;;;;;152.80;74.32;;;-3.30;4.80;;;;;;5078950;28;20068;-79
2021/12/21 05:05:39;;;;;;;155.73;74.05;;;-3.40;92.90;;;;;;5083166;28;20051;-79
2021/12/21 05:08:08;;;;;;;172.60;80.93;;;-3.30;99.90;;;;;;5076129;28;20051;-79
2021/12/21 05:10:44;;;;;;;177.18;87.20;;;-3.30;99.90;;;;;;5075251;28;20067;-81
2021/12/21 05:13:12;;;;;;;152.63;76.00;;;-3.40;99.90;;;;;;5064285;28;20037;-78
2021/12/21 05:15:40;;;;;;;152.38;77.55;;;-3.50;99.90;;;;;;5050905;28;20053;-79
2021/12/21 05:18:07;;;;;;;237.98;110.65;;;-3.50;99.90;;;;;;5086574;28;20078;-80
2021/12/21 05:20:35;;;;;;;187.10;89.78;;;-3.50;99.90;;;;;;5087235;28;20056;-79
2021/12/21 05:23:02;;;;;;;197.25;94.47;;;-3.40;99.90;;;;;;5065196;28;20063;-79
2021/12/21 05:25:32;;;;;;;189.13;96.82;;;-3.40;99.90;;;;;;5070873;28;20096;-80
2021/12/21 05:28:00;;;;;;;169.70;86.50;;;-3.40;99.90;;;;;;5064631;28;20111;-79
2021/12/21 05:30:28;;;;;;;164.60;84.85;;;-3.50;93.50;;;;;;5068236;28;20124;-79
2021/12/21 05:32:57;;;;;;;204.80;101.60;;;-3.50;99.90;;;;;;5085052;28;20113;-78
2021/12/21 05:35:26;;;;;;;188.27;91.75;;;-3.50;99.90;;;;;;5085584;28;20055;-80
2021/12/21 05:37:58;;;;;;;186.75;93.93;;;-3.50;99.90;;;;;;5082318;28;20044;-80
2021/12/21 05:40:32;;;;;;;187.70;97.00;;;-3.60;99.90;;;;;;5048202;28;20059;-80
2021/12/21 05:43:01;;;;;;;180.05;89.65;;;-3.70;99.90;;;;;;5065665;28;20061;-80
2021/12/21 05:45:28;;;;;;;176.48;92.15;;;-3.70;99.90;;;;;;5062153;28;20431;-81
2021/12/21 05:47:56;;;;;;;162.98;84.35;;;-3.70;99.90;;;;;;5072003;28;20140;-81
2021/12/21 05:50:23;;;;;;;161.73;88.55;;;-3.70;99.90;;;;;;5062444;28;20041;-81
2021/12/21 05:52:52;;;;;;;155.90;81.72;;;-3.70;99.90;;;;;;5078403;28;20052;-79
2021/12/21 05:55:23;;;;;;;166.27;84.93;;;-3.70;99.90;;;;;;5065664;28;20064;-78
2021/12/21 05:57:51;;;;;;;170.48;90.60;;;-3.70;99.90;;;;;;5088297;28;20048;-81
2021/12/21 06:00:22;;;;;;;164.60;82.47;;;-3.70;99.90;;;;;;5084237;28;20067;-79
2021/12/21 06:02:50;;;;;;;163.02;82.38;;;-3.70;99.90;;;;;;5088159;28;20124;-80
2021/12/21 06:05:19;;;;;;;174.43;90.57;;;-3.60;99.90;;;;;;5046706;28;20042;-81
2021/12/21 06:07:51;;;;;;;190.45;97.43;;;-3.60;99.90;;;;;;5058285;28;20080;-78
2021/12/21 06:10:24;;;;;;;238.93;119.97;;;-3.50;99.90;;;;;;5090023;28;20403;-80
2021/12/21 06:13:14;;;;;;;239.20;123.43;;;-3.50;99.90;;;;;;5076471;28;20160;-78
2021/12/21 06:15:54;;;;;;;234.00;124.82;;;-3.50;63.80;;;;;;5071475;28;20049;-80
2021/12/21 06:26:34;;;;;;;287.70;140.23;;;-3.50;99.90;;;;;;5052817;28;20131;-80
2021/12/21 06:29:03;;;;;;;270.10;132.65;;;-3.50;96.40;;;;;;5074952;28;20085;-79
2021/12/21 06:31:32;;;;;;;272.02;135.05;;;-3.50;40.90;;;;;;5040361;28;20365;-79
2021/12/21 06:34:00;;;;;;;277.95;134.65;;;-3.50;59.30;;;;;;5044013;28;20049;-79
2021/12/21 06:36:28;;;;;;;286.27;134.30;;;-3.50;32.80;;;;;;5061068;28;20416;-79
2021/12/21 06:38:55;;;;;;;265.17;126.28;;;-3.40;17.10;;;;;;5067324;28;20033;-79
2021/12/21 06:41:23;;;;;;;251.80;121.38;;;-3.50;1.00;;;;;;5054138;28;20432;-80
2021/12/21 06:43:51;;;;;;;274.52;131.60;;;-3.50;1.00;;;;;;5059977;28;20404;-80
2021/12/21 06:46:42;;;;;;;305.83;145.68;;;-3.60;1.00;;;;;;5048649;28;20067;-80
2021/12/21 06:51:54;;;;;;;232.93;118.93;;;-3.60;1.00;;;;;;5068062;28;20053;-80
2021/12/21 06:54:22;;;;;;;210.98;107.85;;;-3.70;1.00;;;;;;5079248;28;20041;-78
2021/12/21 06:56:50;;;;;;;231.68;112.32;;;-3.70;1.00;;;;;;5093813;28;20043;-81
2021/12/21 06:59:17;;;;;;;252.55;122.45;;;-3.60;1.00;;;;;;5091030;28;20108;-79
2021/12/21 07:01:48;;;;;;;344.60;166.68;;;-3.50;1.00;;;;;;5090300;28;20063;-80
2021/12/21 07:04:18;;;;;;;339.55;155.77;;;-3.40;1.00;;;;;;5046914;28;20049;-79
2021/12/21 07:06:46;;;;;;;303.77;140.95;;;-3.40;1.00;;;;;;5074688;28;20105;-80
2021/12/21 07:09:21;;;;;;;278.95;132.18;;;-3.40;1.00;;;;;;5073873;28;20045;-80
2021/12/21 07:11:56;;;;;;;280.20;130.85;;;-3.20;1.00;;;;;;5058282;28;20076;-79
2021/12/21 07:19:56;;;;;;;338.25;160.20;;;-3.10;1.00;;;;;;5081856;28;20099;-79
2021/12/21 07:22:24;;;;;;;323.92;154.20;;;-3.00;1.00;;;;;;5052866;28;20115;-78
2021/12/21 07:24:52;;;;;;;296.85;142.40;;;-3.00;1.00;;;;;;5079323;28;20044;-79
2021/12/21 07:27:19;;;;;;;329.60;163.70;;;-2.90;1.00;;;;;;5096554;28;20040;-76
2021/12/21 07:29:48;;;;;;;319.80;150.30;;;-2.90;1.00;;;;;;5099617;28;20040;-80
2021/12/21 07:32:15;;;;;;;295.27;137.10;;;-3.00;1.00;;;;;;5097655;28;20044;-79
2021/12/21 07:34:43;;;;;;;290.35;136.75;;;-2.90;1.00;;;;;;5087070;28;20106;-78
2021/12/21 07:37:11;;;;;;;309.58;142.15;;;-2.60;1.00;;;;;;5078251;28;20049;-80
2021/12/21 07:39:39;;;;;;;235.80;114.25;;;-2.30;1.00;;;;;;5087267;28;20043;-79
2021/12/21 07:42:08;;;;;;;244.25;118.82;;;-2.20;1.00;;;;;;5085644;28;20086;-78
2021/12/21 07:44:35;;;;;;;261.25;132.15;;;-2.10;1.00;;;;;;5065415;28;20119;-80
2021/12/21 07:47:03;;;;;;;254.20;125.28;;;-2.00;1.00;;;;;;5069276;28;20064;-80
2021/12/21 07:49:31;;;;;;;250.43;122.53;;;-1.90;1.00;;;;;;5090845;28;20048;-80
2021/12/21 07:51:59;;;;;;;235.98;116.15;;;-1.80;1.00;;;;;;5076447;28;20120;-79
2021/12/21 07:54:28;;;;;;;218.15;107.20;;;-1.70;1.00;;;;;;5049405;28;20069;-80
2021/12/21 07:56:55;;;;;;;220.40;109.25;;;-1.50;1.00;;;;;;5044928;28;20072;-80
2021/12/21 07:59:23;;;;;;;230.90;112.30;;;-1.60;1.00;;;;;;5029427;28;20050;-80
2021/12/21 08:01:52;;;;;;;221.93;113.18;;;-1.60;1.00;;;;;;5060250;28;20056;-80
2021/12/21 08:04:21;;;;;;;244.57;122.00;;;-1.50;1.00;;;;;;5065873;28;20041;-79
2021/12/21 08:06:51;;;;;;;250.88;125.97;;;-1.50;1.00;;;;;;5084045;28;20080;-81
2021/12/21 08:09:19;;;;;;;264.17;130.18;;;-1.30;1.00;;;;;;5050453;28;20075;-80
2021/12/21 08:14:34;;;;;;;252.75;124.32;;;-1.10;1.00;;;;;;5055967;28;20503;-80
2021/12/21 08:17:01;;;;;;;335.65;149.68;;;-1.00;99.90;;;;;;5054675;28;20079;-81
2021/12/21 08:19:28;;;;;;;336.13;151.75;;;-0.90;99.90;;;;;;5044246;28;20041;-81
2021/12/21 08:21:56;;;;;;;293.65;142.93;;;-0.80;99.90;;;;;;5055595;28;20048;-81
2021/12/21 08:24:24;;;;;;;288.58;137.55;;;-0.70;99.90;;;;;;5025457;28;20049;-81
2021/12/21 08:26:53;;;;;;;304.40;150.20;;;-0.70;99.90;;;;;;5041156;28;20132;-78
2021/12/21 08:29:20;;;;;;;328.33;157.77;;;-0.60;99.90;;;;;;5041544;28;20065;-80
2021/12/21 08:31:48;;;;;;;335.10;162.55;;;-0.50;99.90;;;;;;5044650;28;20077;-81
2021/12/21 08:34:16;;;;;;;303.90;148.32;;;-0.50;99.90;;;;;;5059236;28;20116;-81
2021/12/21 08:36:43;;;;;;;321.75;154.63;;;-0.40;99.90;;;;;;5044980;28;20045;-82
2021/12/21 08:39:11;;;;;;;308.63;157.32;;;-0.20;99.90;;;;;;5047451;28;20056;-81
2021/12/21 08:41:42;;;;;;;291.60;147.40;;;-0.10;99.90;;;;;;5038344;28;20049;-80
2021/12/21 08:44:12;;;;;;;283.42;137.50;;;0.00;99.90;;;;;;5062139;28;20037;-80
2021/12/21 08:46:41;;;;;;;264.95;127.35;;;0.00;99.90;;;;;;5054603;28;20060;-79
2021/12/21 08:49:08;;;;;;;273.50;133.20;;;0.00;99.90;;;;;;5071376;28;20048;-77
2021/12/21 08:51:36;;;;;;;263.95;130.05;;;0.10;99.90;;;;;;5072354;28;20049;-79
2021/12/21 08:54:04;;;;;;;297.20;136.93;;;0.10;99.90;;;;;;5068895;28;20044;-81
2021/12/21 08:56:31;;;;;;;286.05;132.18;;;0.30;99.90;;;;;;5056943;28;20048;-79
2021/12/21 08:58:59;;;;;;;292.02;133.68;;;0.30;99.90;;;;;;5061497;28;20067;-80
2021/12/21 09:01:27;;;;;;;311.83;142.15;;;0.50;99.90;;;;;;5059823;28;20071;-79
2021/12/21 09:03:56;;;;;;;286.25;136.23;;;0.70;99.90;;;;;;5059564;28;20051;-81
2021/12/21 09:06:25;;;;;;;272.27;132.15;;;0.90;99.90;;;;;;5080105;28;20086;-77
2021/12/21 09:08:53;;;;;;;252.27;123.97;;;1.10;99.90;;;;;;5070308;28;20483;-77
2021/12/21 09:11:20;;;;;;;288.58;141.75;;;1.20;99.90;;;;;;5052873;28;20041;-79
2021/12/21 09:13:48;;;;;;;311.52;158.80;;;1.30;99.90;;;;;;5051565;28;20056;-77
2021/12/21 09:16:15;;;;;;;290.75;146.73;;;1.40;99.90;;;;;;5036946;28;20080;-77
2021/12/21 09:18:44;;;;;;;256.35;129.63;;;1.40;99.90;;;;;;5059628;28;20045;-78
2021/12/21 09:21:15;;;;;;;240.18;116.75;;;1.60;99.90;;;;;;5060585;28;20128;-79
2021/12/21 09:23:43;;;;;;;242.90;122.10;;;1.60;99.90;;;;;;5065547;28;20124;-80
2021/12/21 09:26:10;;;;;;;229.25;117.43;;;1.70;99.90;;;;;;5074735;28;20050;-81
2021/12/21 09:28:38;;;;;;;225.18;116.68;;;1.80;99.90;;;;;;5082013;28;20584;-81
2021/12/21 09:31:05;;;;;;;253.05;127.35;;;2.00;99.90;;;;;;5060552;28;20064;-80
2021/12/21 09:33:33;;;;;;;235.88;119.05;;;2.20;99.90;;;;;;5077230;28;20040;-80
2021/12/21 09:36:02;;;;;;;195.38;97.93;;;2.30;99.90;;;;;;5066509;28;20097;-82
2021/12/21 09:38:29;;;;;;;146.68;62.00;;;2.50;99.90;;;;;;5076232;28;20045;-78
2021/12/21 09:40:57;;;;;;;52.25;28.05;;;2.70;90.40;;;;;;5062780;28;20045;-80
2021/12/21 09:43:25;;;;;;;58.13;28.05;;;2.70;35.60;;;;;;5068566;28;20109;-80
2021/12/21 09:45:53;;;;;;;52.03;23.48;;;2.80;13.90;;;;;;5049488;28;20033;-80
2021/12/21 09:48:22;;;;;;;50.83;25.67;;;2.80;4.00;;;;;;5040678;28;20135;-79
2021/12/21 09:50:49;;;;;;;49.25;25.25;;;2.80;1.00;;;;;;5043348;28;20455;-80
2021/12/21 09:53:19;;;;;;;46.08;22.40;;;2.90;1.00;;;;;;5057759;28;20041;-79
2021/12/21 09:55:48;;;;;;;50.67;24.20;;;3.00;1.00;;;;;;5058478;28;20492;-80
2021/12/21 09:58:16;;;;;;;51.60;24.92;;;3.10;1.00;;;;;;5079555;28;20108;-81
2021/12/21 10:00:44;;;;;;;38.47;19.60;;;3.20;1.00;;;;;;5080318;28;20471;-81
2021/12/21 10:03:12;;;;;;;32.75;16.25;;;3.20;1.00;;;;;;5076171;28;20094;-79
2021/12/21 10:05:42;;;;;;;30.27;14.07;;;3.30;1.00;;;;;;5062378;28;20377;-80
2021/12/21 10:08:15;;;;;;;19.73;8.23;;;3.30;1.00;;;;;;5062447;28;20450;-80
2021/12/21 10:10:47;;;;;;;30.48;15.63;;;3.40;1.00;;;;;;5082170;28;20086;-78
2021/12/21 10:13:18;;;;;;;49.60;25.20;;;3.40;1.00;;;;;;5078980;28;20087;-81
2021/12/21 10:15:48;;;;;;;44.92;21.63;;;3.50;1.00;;;;;;5079648;28;20404;-80
2021/12/21 10:18:22;;;;;;;36.38;19.58;;;3.50;1.00;;;;;;5091736;28;20055;-79
2021/12/21 10:20:50;;;;;;;26.25;14.13;;;3.50;1.00;;;;;;5082170;28;20044;-79
2021/12/21 10:23:20;;;;;;;23.95;10.18;;;3.50;1.00;;;;;;5077771;28;20553;-78
2021/12/21 10:25:52;;;;;;;14.30;6.68;;;3.50;1.00;;;;;;5077600;28;20044;-79
2021/12/21 10:28:34;;;;;;;11.15;5.07;;;3.60;1.00;;;;;;5076859;28;20385;-79
2021/12/21 10:31:05;;;;;;;10.00;4.53;;;3.70;1.00;;;;;;5060341;28;20040;-80
2021/12/21 10:33:35;;;;;;;17.80;5.70;;;3.70;1.00;;;;;;5078784;28;20056;-80
2021/12/21 10:36:05;;;;;;;24.67;9.65;;;3.70;1.00;;;;;;5078100;28;20036;-80
2021/12/21 10:38:36;;;;;;;46.85;22.13;;;3.90;1.00;;;;;;5059455;28;20103;-82
2021/12/21 10:41:10;;;;;;;47.47;23.92;;;3.90;1.00;;;;;;5061239;28;20106;-80
2021/12/21 10:43:37;;;;;;;54.03;24.27;;;3.90;1.00;;;;;;5079247;28;20045;-80
2021/12/21 10:46:05;;;;;;;51.85;25.92;;;4.00;1.00;;;;;;5089834;28;20052;-80
2021/12/21 10:48:35;;;;;;;50.97;25.38;;;4.10;1.00;;;;;;5084578;28;20052;-79
2021/12/21 10:51:07;;;;;;;44.38;20.65;;;4.10;1.00;;;;;;5077347;28;20048;-79
2021/12/21 10:53:37;;;;;;;42.03;17.25;;;4.00;1.00;;;;;;5075199;28;20067;-80
2021/12/21 10:56:08;;;;;;;28.95;12.93;;;4.00;1.00;;;;;;5076224;28;20055;-79
2021/12/21 10:58:39;;;;;;;21.80;9.38;;;4.00;1.00;;;;;;5076584;28;20047;-81
2021/12/21 11:01:10;;;;;;;14.85;5.43;;;4.00;1.00;;;;;;5074735;28;20565;-79
2021/12/21 11:03:45;;;;;;;16.27;5.80;;;4.10;1.00;;;;;;5058436;28;20490;-79
2021/12/21 11:06:15;;;;;;;13.75;6.05;;;4.10;1.00;;;;;;5058731;28;20044;-81
2021/12/21 11:08:44;;;;;;;10.60;4.60;;;4.10;1.00;;;;;;5076348;28;20484;-78
2021/12/21 11:11:28;;;;;;;14.05;6.47;;;4.00;1.00;;;;;;5075872;28;20446;-80
2021/12/21 11:14:05;;;;;;;15.45;7.35;;;4.00;1.00;;;;;;5076846;28;20049;-81
2021/12/21 11:16:40;;;;;;;15.18;8.73;;;3.90;1.00;;;;;;5075793;28;20044;-81
2021/12/21 11:19:08;;;;;;;;;;;4.00;1.00;;;;;;5058759;28;20056;-80
2021/12/21 11:21:36;;;;;;;12.82;6.30;;;4.00;1.00;;;;;;5076170;28;19927;-80
2021/12/21 11:24:06;;;;;;;22.73;10.75;;;3.90;1.00;;;;;;5077056;28;20040;-79
2021/12/21 11:26:37;;;;;;;19.63;8.70;;;4.00;1.00;;;;;;5058243;28;20170;-79
2021/12/21 11:29:06;;;;;;;19.88;9.90;;;4.00;1.00;;;;;;5077217;28;20147;-81
2021/12/21 11:31:38;;;;;;;23.83;11.70;;;4.00;1.00;;;;;;5078276;28;20053;-80
2021/12/21 11:34:09;;;;;;;22.38;12.43;;;4.00;1.00;;;;;;5060606;28;20070;-79
2021/12/21 11:39:22;;;;;;;25.90;12.50;;;4.10;1.00;;;;;;5078087;28;20097;-79
2021/12/21 11:41:52;;;;;;;32.92;13.02;;;4.10;1.00;;;;;;5058315;28;20056;-81
2021/12/21 11:44:28;;;;;;;30.25;12.15;;;4.10;1.00;;;;;;5057077;28;20040;-79
2021/12/21 11:46:59;;;;;;;26.10;13.82;;;4.00;1.00;;;;;;5075527;28;20094;-80
2021/12/21 11:49:34;;;;;;;23.85;12.98;;;4.00;1.00;;;;;;5074622;28;20127;-79
2021/12/21 11:52:10;;;;;;;28.52;13.57;;;4.20;1.00;;;;;;5075840;28;20045;-79
2021/12/21 11:54:45;;;;;;;26.77;12.38;;;4.20;1.00;;;;;;5058445;28;20048;-80
2021/12/21 11:57:14;;;;;;;22.02;12.10;;;4.20;1.00;;;;;;5075867;28;20059;-79
2021/12/21 11:59:42;;;;;;;21.83;10.05;;;4.30;1.00;;;;;;5074650;28;20073;-79
2021/12/21 12:02:10;;;;;;;20.50;9.80;;;4.30;1.00;;;;;;5075568;28;20060;-80
2021/12/21 12:04:37;;;;;;;26.02;9.77;;;4.20;1.00;;;;;;5076315;28;20115;-80
2021/12/21 12:07:18;;;;;;;22.85;8.27;;;4.30;1.00;;;;;;5075968;28;20041;-80
2021/12/21 12:09:46;;;;;;;18.45;9.07;;;4.40;1.00;;;;;;5059380;28;20060;-80
2021/12/21 12:12:17;;;;;;;16.50;8.48;;;4.50;1.00;;;;;;5078632;28;20060;-78
2021/12/21 12:14:46;;;;;;;22.90;8.45;;;4.50;1.00;;;;;;5081950;28;20045;-78
2021/12/21 12:17:16;;;;;;;16.02;8.25;;;4.40;1.00;;;;;;5085123;28;20040;-79
2021/12/21 12:19:51;;;;;;;17.05;6.80;;;4.50;1.00;;;;;;5084075;28;20052;-79
2021/12/21 12:22:24;;;;;;;16.85;7.70;;;4.50;1.00;;;;;;5065029;28;20071;-78
2021/12/21 12:24:57;;;;;;;23.77;9.65;;;4.40;1.00;;;;;;5060005;28;20040;-79
2021/12/21 12:27:31;;;;;;;26.67;9.40;;;4.40;1.00;;;;;;5078551;28;20079;-79
2021/12/21 12:30:02;;;;;;;15.63;7.95;;;4.40;1.00;;;;;;5060319;28;20052;-79
2021/12/21 12:32:35;;;;;;;18.42;9.63;;;4.40;1.00;;;;;;5060753;28;20111;-79
2021/12/21 12:35:06;;;;;;;21.58;10.35;;;4.40;1.00;;;;;;5078223;28;20063;-79
2021/12/21 12:37:34;;;;;;;21.75;10.93;;;4.50;1.00;;;;;;5078424;28;20048;-79
2021/12/21 12:40:10;;;;;;;25.25;10.85;;;4.50;1.00;;;;;;5079019;28;20040;-79
2021/12/21 12:42:39;;;;;;;24.02;10.63;;;4.60;1.00;;;;;;5073848;28;20063;-79
2021/12/21 12:45:11;;;;;;;20.27;9.98;;;4.60;1.00;;;;;;5041115;28;20041;-79
2021/12/21 12:47:43;;;;;;;19.85;8.35;;;4.60;1.00;;;;;;5037097;28;20056;-79
2021/12/21 12:50:19;;;;;;;17.65;7.40;;;4.50;1.00;;;;;;5058926;28;20033;-81
2021/12/21 12:52:52;;;;;;;18.08;9.07;;;4.40;1.00;;;;;;5059289;28;20045;-81
2021/12/21 12:55:20;;;;;;;22.77;8.60;;;4.50;1.00;;;;;;5041979;28;20403;-80
2021/12/21 12:57:54;;;;;;;18.75;8.50;;;4.50;1.00;;;;;;5062581;28;20488;-81
2021/12/21 13:00:26;;;;;;;16.58;7.90;;;4.50;1.00;;;;;;5037453;28;20052;-78
2021/12/21 13:02:56;;;;;;;14.88;7.13;;;4.60;1.00;;;;;;5028768;28;20063;-80
2021/12/21 13:05:34;;;;;;;13.68;7.47;;;4.50;1.00;;;;;;5058095;28;20444;-79
2021/12/21 13:08:14;;;;;;;14.55;7.78;;;4.40;1.00;;;;;;5058240;28;20056;-81
2021/12/21 13:10:44;;;;;;;19.38;8.80;;;4.30;1.00;;;;;;5058796;28;20048;-80
2021/12/21 13:13:13;;;;;;;35.63;12.95;;;4.40;1.00;;;;;;5057954;28;20125;-81
2021/12/21 13:15:43;;;;;;;32.58;14.27;;;4.40;1.00;;;;;;5059138;28;20041;-80
2021/12/21 13:18:13;;;;;;;12.70;6.90;;;4.40;1.00;;;;;;5059272;28;20099;-81